sensor_id;sensor_type;location;lat;lon;timestamp;P1;durP1;ratioP1;P2;durP2;ratioP2
60233;SDS011;49514;43.538;-5.708;2023-08-07T00:01:33;5.32;;;1.73;;
60233;SDS011;49514;43.538;-5.708;2023-08-07T00:04:00;6.35;;;1.88;;
60233;SDS011;49514;43.538;-5.708;2023-08-07T00:06:26;7.57;;;2.05;;
60233;SDS011;49514;43.538;-5.708;2023-08-07T00:08:53;9.50;;;2.13;;
60233;SDS011;49514;43.538;-5.708;2023-08-07T00:11:20;9.75;;;2.08;;
60233;SDS011;49514;43.538;-5.708;2023-08-07T00:13:46;7.30;;;2.00;;
60233;SDS011;49514;43.538;-5.708;2023-08-07T00:16:13;9.55;;;2.15;;
60233;SDS011;49514;43.538;-5.708;2023-08-07T00:18:39;7.93;;;1.90;;
60233;SDS011;49514;43.538;-5.708;2023-08-07T00:21:06;8.00;;;2.10;;
60233;SDS011;49514;43.538;-5.708;2023-08-07T00:23:32;7.85;;;2.20;;
60233;SDS011;49514;43.538;-5.708;2023-08-07T00:25:59;7.57;;;2.10;;
60233;SDS011;49514;43.538;-5.708;2023-08-07T00:28:26;7.07;;;1.90;;
60233;SDS011;49514;43.538;-5.708;2023-08-07T00:30:54;9.73;;;2.23;;
60233;SDS011;49514;43.538;-5.708;2023-08-07T00:33:21;7.43;;;1.90;;
60233;SDS011;49514;43.538;-5.708;2023-08-07T00:35:48;9.48;;;2.08;;
60233;SDS011;49514;43.538;-5.708;2023-08-07T00:38:15;10.23;;;1.98;;
60233;SDS011;49514;43.538;-5.708;2023-08-07T00:40:42;8.05;;;1.98;;
60233;SDS011;49514;43.538;-5.708;2023-08-07T00:43:08;6.70;;;1.58;;
60233;SDS011;49514;43.538;-5.708;2023-08-07T00:45:41;6.35;;;1.85;;
60233;SDS011;49514;43.538;-5.708;2023-08-07T00:48:10;9.37;;;2.10;;
60233;SDS011;49514;43.538;-5.708;2023-08-07T00:50:38;9.23;;;1.80;;
60233;SDS011;49514;43.538;-5.708;2023-08-07T00:53:06;7.37;;;1.77;;
60233;SDS011;49514;43.538;-5.708;2023-08-07T00:55:33;7.80;;;1.93;;
60233;SDS011;49514;43.538;-5.708;2023-08-07T00:58:00;7.10;;;1.80;;
60233;SDS011;49514;43.538;-5.708;2023-08-07T01:00:28;8.07;;;2.08;;
60233;SDS011;49514;43.538;-5.708;2023-08-07T01:02:56;7.32;;;1.95;;
60233;SDS011;49514;43.538;-5.708;2023-08-07T01:05:24;6.95;;;1.75;;
60233;SDS011;49514;43.538;-5.708;2023-08-07T01:07:53;7.22;;;1.75;;
60233;SDS011;49514;43.538;-5.708;2023-08-07T01:10:31;8.50;;;1.85;;
60233;SDS011;49514;43.538;-5.708;2023-08-07T01:13:26;7.30;;;1.67;;
60233;SDS011;49514;43.538;-5.708;2023-08-07T01:16:02;6.88;;;1.88;;
60233;SDS011;49514;43.538;-5.708;2023-08-07T01:18:34;7.53;;;1.98;;
60233;SDS011;49514;43.538;-5.708;2023-08-07T01:21:04;8.57;;;1.75;;
60233;SDS011;49514;43.538;-5.708;2023-08-07T01:23:32;8.50;;;1.70;;
60233;SDS011;49514;43.538;-5.708;2023-08-07T01:25:59;6.13;;;1.75;;
60233;SDS011;49514;43.538;-5.708;2023-08-07T01:28:26;7.45;;;1.98;;
60233;SDS011;49514;43.538;-5.708;2023-08-07T01:30:59;7.10;;;1.85;;
60233;SDS011;49514;43.538;-5.708;2023-08-07T01:33:31;5.22;;;1.58;;
60233;SDS011;49514;43.538;-5.708;2023-08-07T01:36:13;6.90;;;1.80;;
60233;SDS011;49514;43.538;-5.708;2023-08-07T01:38:42;6.88;;;1.80;;
60233;SDS011;49514;43.538;-5.708;2023-08-07T01:41:09;6.70;;;1.70;;
60233;SDS011;49514;43.538;-5.708;2023-08-07T01:43:36;5.13;;;1.50;;
60233;SDS011;49514;43.538;-5.708;2023-08-07T01:46:03;5.80;;;1.53;;
60233;SDS011;49514;43.538;-5.708;2023-08-07T01:48:31;6.43;;;1.92;;
60233;SDS011;49514;43.538;-5.708;2023-08-07T01:50:57;8.37;;;1.60;;
60233;SDS011;49514;43.538;-5.708;2023-08-07T01:53:24;8.20;;;2.10;;
60233;SDS011;49514;43.538;-5.708;2023-08-07T01:55:51;5.95;;;1.73;;
60233;SDS011;49514;43.538;-5.708;2023-08-07T01:58:17;7.85;;;2.00;;
60233;SDS011;49514;43.538;-5.708;2023-08-07T02:00:44;6.18;;;1.63;;
60233;SDS011;49514;43.538;-5.708;2023-08-07T02:03:11;8.50;;;1.55;;
60233;SDS011;49514;43.538;-5.708;2023-08-07T02:05:37;6.60;;;1.75;;
60233;SDS011;49514;43.538;-5.708;2023-08-07T02:08:04;5.72;;;1.48;;
60233;SDS011;49514;43.538;-5.708;2023-08-07T02:10:31;7.00;;;1.67;;
60233;SDS011;49514;43.538;-5.708;2023-08-07T02:12:58;8.93;;;1.85;;
60233;SDS011;49514;43.538;-5.708;2023-08-07T02:15:26;11.00;;;2.40;;
60233;SDS011;49514;43.538;-5.708;2023-08-07T02:17:52;9.68;;;2.17;;
60233;SDS011;49514;43.538;-5.708;2023-08-07T02:20:19;5.85;;;1.60;;
60233;SDS011;49514;43.538;-5.708;2023-08-07T02:22:46;7.38;;;1.73;;
60233;SDS011;49514;43.538;-5.708;2023-08-07T02:25:12;6.68;;;1.80;;
60233;SDS011;49514;43.538;-5.708;2023-08-07T02:27:39;5.85;;;1.45;;
60233;SDS011;49514;43.538;-5.708;2023-08-07T02:30:06;7.03;;;1.75;;
60233;SDS011;49514;43.538;-5.708;2023-08-07T02:32:33;6.97;;;1.75;;
60233;SDS011;49514;43.538;-5.708;2023-08-07T02:35:00;5.85;;;1.60;;
60233;SDS011;49514;43.538;-5.708;2023-08-07T02:37:26;5.95;;;1.70;;
60233;SDS011;49514;43.538;-5.708;2023-08-07T02:39:53;7.40;;;1.75;;
60233;SDS011;49514;43.538;-5.708;2023-08-07T02:42:20;7.33;;;1.90;;
60233;SDS011;49514;43.538;-5.708;2023-08-07T02:44:46;6.35;;;1.48;;
60233;SDS011;49514;43.538;-5.708;2023-08-07T02:47:13;6.13;;;1.57;;
60233;SDS011;49514;43.538;-5.708;2023-08-07T02:49:40;5.65;;;1.63;;
60233;SDS011;49514;43.538;-5.708;2023-08-07T02:52:07;4.53;;;1.45;;
60233;SDS011;49514;43.538;-5.708;2023-08-07T02:54:33;5.43;;;1.50;;
60233;SDS011;49514;43.538;-5.708;2023-08-07T02:57:00;7.60;;;1.77;;
60233;SDS011;49514;43.538;-5.708;2023-08-07T02:59:26;7.22;;;1.80;;
60233;SDS011;49514;43.538;-5.708;2023-08-07T03:01:53;7.10;;;1.90;;
60233;SDS011;49514;43.538;-5.708;2023-08-07T03:04:20;8.82;;;2.22;;
60233;SDS011;49514;43.538;-5.708;2023-08-07T03:06:47;7.78;;;2.38;;
60233;SDS011;49514;43.538;-5.708;2023-08-07T03:09:14;9.30;;;2.53;;
60233;SDS011;49514;43.538;-5.708;2023-08-07T03:11:40;10.32;;;2.90;;
60233;SDS011;49514;43.538;-5.708;2023-08-07T03:14:07;11.20;;;3.17;;
60233;SDS011;49514;43.538;-5.708;2023-08-07T03:16:33;9.57;;;2.55;;
60233;SDS011;49514;43.538;-5.708;2023-08-07T03:19:00;6.75;;;2.50;;
60233;SDS011;49514;43.538;-5.708;2023-08-07T03:21:26;8.20;;;2.40;;
60233;SDS011;49514;43.538;-5.708;2023-08-07T03:23:53;8.68;;;2.55;;
60233;SDS011;49514;43.538;-5.708;2023-08-07T03:26:20;11.07;;;3.20;;
60233;SDS011;49514;43.538;-5.708;2023-08-07T03:28:48;10.23;;;2.77;;
60233;SDS011;49514;43.538;-5.708;2023-08-07T03:31:15;8.43;;;2.27;;
60233;SDS011;49514;43.538;-5.708;2023-08-07T03:33:41;7.07;;;2.10;;
60233;SDS011;49514;43.538;-5.708;2023-08-07T03:36:08;7.67;;;2.10;;
60233;SDS011;49514;43.538;-5.708;2023-08-07T03:38:38;6.20;;;1.80;;
60233;SDS011;49514;43.538;-5.708;2023-08-07T03:41:05;8.80;;;2.03;;
60233;SDS011;49514;43.538;-5.708;2023-08-07T03:43:32;7.57;;;2.00;;
60233;SDS011;49514;43.538;-5.708;2023-08-07T03:45:59;6.53;;;1.92;;
60233;SDS011;49514;43.538;-5.708;2023-08-07T03:48:26;6.50;;;1.80;;
60233;SDS011;49514;43.538;-5.708;2023-08-07T03:50:52;6.45;;;1.73;;
60233;SDS011;49514;43.538;-5.708;2023-08-07T03:53:27;9.17;;;1.97;;
60233;SDS011;49514;43.538;-5.708;2023-08-07T03:55:53;8.65;;;2.00;;
60233;SDS011;49514;43.538;-5.708;2023-08-07T03:58:22;5.82;;;1.60;;
60233;SDS011;49514;43.538;-5.708;2023-08-07T04:00:50;5.97;;;1.73;;
60233;SDS011;49514;43.538;-5.708;2023-08-07T04:03:20;8.73;;;1.87;;
60233;SDS011;49514;43.538;-5.708;2023-08-07T04:05:51;6.87;;;1.80;;
60233;SDS011;49514;43.538;-5.708;2023-08-07T04:08:19;5.47;;;1.60;;
60233;SDS011;49514;43.538;-5.708;2023-08-07T04:10:56;6.43;;;1.80;;
60233;SDS011;49514;43.538;-5.708;2023-08-07T04:13:28;7.07;;;2.00;;
60233;SDS011;49514;43.538;-5.708;2023-08-07T04:15:56;4.95;;;1.73;;
60233;SDS011;49514;43.538;-5.708;2023-08-07T04:18:23;4.85;;;1.77;;
60233;SDS011;49514;43.538;-5.708;2023-08-07T04:20:53;7.50;;;2.00;;
60233;SDS011;49514;43.538;-5.708;2023-08-07T04:23:21;5.82;;;1.90;;
60233;SDS011;49514;43.538;-5.708;2023-08-07T04:25:48;9.27;;;2.58;;
60233;SDS011;49514;43.538;-5.708;2023-08-07T04:28:15;12.35;;;2.92;;
60233;SDS011;49514;43.538;-5.708;2023-08-07T04:30:42;10.07;;;2.80;;
60233;SDS011;49514;43.538;-5.708;2023-08-07T04:33:10;10.67;;;2.40;;
60233;SDS011;49514;43.538;-5.708;2023-08-07T04:35:37;8.65;;;2.17;;
60233;SDS011;49514;43.538;-5.708;2023-08-07T04:38:04;9.65;;;2.22;;
60233;SDS011;49514;43.538;-5.708;2023-08-07T04:40:30;8.43;;;2.13;;
60233;SDS011;49514;43.538;-5.708;2023-08-07T04:42:57;13.20;;;2.50;;
60233;SDS011;49514;43.538;-5.708;2023-08-07T04:45:24;8.65;;;2.13;;
60233;SDS011;49514;43.538;-5.708;2023-08-07T04:47:50;6.77;;;1.60;;
60233;SDS011;49514;43.538;-5.708;2023-08-07T04:50:17;6.38;;;1.63;;
60233;SDS011;49514;43.538;-5.708;2023-08-07T04:52:44;6.55;;;1.80;;
60233;SDS011;49514;43.538;-5.708;2023-08-07T04:55:10;6.95;;;1.52;;
60233;SDS011;49514;43.538;-5.708;2023-08-07T04:57:37;7.63;;;1.80;;
60233;SDS011;49514;43.538;-5.708;2023-08-07T05:00:04;5.03;;;1.77;;
60233;SDS011;49514;43.538;-5.708;2023-08-07T05:02:31;9.90;;;2.03;;
60233;SDS011;49514;43.538;-5.708;2023-08-07T05:04:58;7.85;;;1.88;;
60233;SDS011;49514;43.538;-5.708;2023-08-07T05:07:24;8.55;;;2.10;;
60233;SDS011;49514;43.538;-5.708;2023-08-07T05:09:51;14.35;;;3.05;;
60233;SDS011;49514;43.538;-5.708;2023-08-07T05:12:18;18.50;;;3.53;;
60233;SDS011;49514;43.538;-5.708;2023-08-07T05:14:44;23.47;;;4.37;;
60233;SDS011;49514;43.538;-5.708;2023-08-07T05:17:11;21.17;;;3.70;;
60233;SDS011;49514;43.538;-5.708;2023-08-07T05:19:38;18.90;;;3.53;;
60233;SDS011;49514;43.538;-5.708;2023-08-07T05:22:05;22.23;;;3.50;;
60233;SDS011;49514;43.538;-5.708;2023-08-07T05:24:32;12.43;;;2.60;;
60233;SDS011;49514;43.538;-5.708;2023-08-07T05:27:05;9.63;;;2.10;;
60233;SDS011;49514;43.538;-5.708;2023-08-07T05:29:34;8.38;;;2.25;;
60233;SDS011;49514;43.538;-5.708;2023-08-07T05:32:09;7.68;;;2.03;;
60233;SDS011;49514;43.538;-5.708;2023-08-07T05:34:39;10.68;;;2.42;;
60233;SDS011;49514;43.538;-5.708;2023-08-07T05:37:06;11.00;;;2.80;;
60233;SDS011;49514;43.538;-5.708;2023-08-07T05:39:34;12.02;;;2.70;;
60233;SDS011;49514;43.538;-5.708;2023-08-07T05:42:01;12.70;;;2.63;;
60233;SDS011;49514;43.538;-5.708;2023-08-07T05:44:29;14.85;;;3.05;;
60233;SDS011;49514;43.538;-5.708;2023-08-07T05:46:56;14.15;;;3.22;;
60233;SDS011;49514;43.538;-5.708;2023-08-07T05:49:22;16.35;;;3.10;;
60233;SDS011;49514;43.538;-5.708;2023-08-07T05:51:49;15.48;;;2.95;;
60233;SDS011;49514;43.538;-5.708;2023-08-07T05:54:16;12.77;;;3.03;;
60233;SDS011;49514;43.538;-5.708;2023-08-07T05:56:42;11.77;;;3.25;;
60233;SDS011;49514;43.538;-5.708;2023-08-07T05:59:09;16.10;;;3.23;;
60233;SDS011;49514;43.538;-5.708;2023-08-07T06:01:36;18.15;;;4.07;;
60233;SDS011;49514;43.538;-5.708;2023-08-07T06:04:02;22.30;;;4.72;;
60233;SDS011;49514;43.538;-5.708;2023-08-07T06:06:29;27.00;;;5.20;;
60233;SDS011;49514;43.538;-5.708;2023-08-07T06:09:00;27.52;;;5.10;;
60233;SDS011;49514;43.538;-5.708;2023-08-07T06:11:28;24.38;;;4.50;;
60233;SDS011;49514;43.538;-5.708;2023-08-07T06:13:54;21.40;;;4.20;;
60233;SDS011;49514;43.538;-5.708;2023-08-07T06:16:21;30.42;;;4.40;;
60233;SDS011;49514;43.538;-5.708;2023-08-07T06:18:48;25.87;;;4.70;;
60233;SDS011;49514;43.538;-5.708;2023-08-07T06:21:14;15.40;;;3.70;;
60233;SDS011;49514;43.538;-5.708;2023-08-07T06:23:41;18.88;;;3.75;;
60233;SDS011;49514;43.538;-5.708;2023-08-07T06:26:08;21.90;;;4.07;;
60233;SDS011;49514;43.538;-5.708;2023-08-07T06:28:34;20.45;;;4.07;;
60233;SDS011;49514;43.538;-5.708;2023-08-07T06:31:05;18.35;;;3.80;;
60233;SDS011;49514;43.538;-5.708;2023-08-07T06:33:34;22.40;;;4.43;;
60233;SDS011;49514;43.538;-5.708;2023-08-07T06:36:02;17.75;;;4.32;;
60233;SDS011;49514;43.538;-5.708;2023-08-07T06:38:29;20.02;;;4.38;;
60233;SDS011;49514;43.538;-5.708;2023-08-07T06:40:56;17.67;;;4.38;;
60233;SDS011;49514;43.538;-5.708;2023-08-07T06:43:23;22.40;;;4.18;;
60233;SDS011;49514;43.538;-5.708;2023-08-07T06:45:50;16.10;;;3.72;;
60233;SDS011;49514;43.538;-5.708;2023-08-07T06:48:17;15.80;;;3.83;;
60233;SDS011;49514;43.538;-5.708;2023-08-07T06:50:44;15.13;;;3.63;;
60233;SDS011;49514;43.538;-5.708;2023-08-07T06:53:12;13.40;;;3.53;;
60233;SDS011;49514;43.538;-5.708;2023-08-07T06:55:40;13.17;;;3.33;;
60233;SDS011;49514;43.538;-5.708;2023-08-07T06:58:08;12.88;;;3.08;;
60233;SDS011;49514;43.538;-5.708;2023-08-07T07:00:35;13.93;;;3.17;;
60233;SDS011;49514;43.538;-5.708;2023-08-07T07:03:02;13.77;;;3.28;;
60233;SDS011;49514;43.538;-5.708;2023-08-07T07:05:29;13.88;;;3.35;;
60233;SDS011;49514;43.538;-5.708;2023-08-07T07:07:57;11.00;;;3.38;;
60233;SDS011;49514;43.538;-5.708;2023-08-07T07:10:24;10.40;;;2.92;;
60233;SDS011;49514;43.538;-5.708;2023-08-07T07:12:51;13.50;;;2.92;;
60233;SDS011;49514;43.538;-5.708;2023-08-07T07:15:18;10.00;;;2.80;;
60233;SDS011;49514;43.538;-5.708;2023-08-07T07:17:44;8.17;;;2.60;;
60233;SDS011;49514;43.538;-5.708;2023-08-07T07:20:11;8.10;;;2.42;;
60233;SDS011;49514;43.538;-5.708;2023-08-07T07:22:38;10.15;;;2.60;;
60233;SDS011;49514;43.538;-5.708;2023-08-07T07:25:05;6.70;;;1.98;;
60233;SDS011;49514;43.538;-5.708;2023-08-07T07:27:32;8.77;;;2.10;;
60233;SDS011;49514;43.538;-5.708;2023-08-07T07:29:58;9.27;;;1.80;;
60233;SDS011;49514;43.538;-5.708;2023-08-07T07:32:25;8.70;;;1.90;;
60233;SDS011;49514;43.538;-5.708;2023-08-07T07:34:52;6.30;;;1.73;;
60233;SDS011;49514;43.538;-5.708;2023-08-07T07:37:18;8.57;;;2.23;;
60233;SDS011;49514;43.538;-5.708;2023-08-07T07:39:45;5.93;;;1.67;;
60233;SDS011;49514;43.538;-5.708;2023-08-07T07:42:11;9.13;;;1.70;;
60233;SDS011;49514;43.538;-5.708;2023-08-07T07:44:38;6.90;;;1.70;;
60233;SDS011;49514;43.538;-5.708;2023-08-07T07:47:05;6.90;;;1.70;;
60233;SDS011;49514;43.538;-5.708;2023-08-07T07:49:33;7.93;;;1.73;;
60233;SDS011;49514;43.538;-5.708;2023-08-07T07:52:00;5.90;;;1.67;;
60233;SDS011;49514;43.538;-5.708;2023-08-07T07:54:28;6.82;;;1.90;;
60233;SDS011;49514;43.538;-5.708;2023-08-07T07:56:55;7.05;;;1.90;;
60233;SDS011;49514;43.538;-5.708;2023-08-07T07:59:21;4.35;;;1.48;;
60233;SDS011;49514;43.538;-5.708;2023-08-07T08:01:48;6.68;;;1.70;;
60233;SDS011;49514;43.538;-5.708;2023-08-07T08:04:15;8.80;;;1.90;;
60233;SDS011;49514;43.538;-5.708;2023-08-07T08:06:41;6.28;;;1.42;;
60233;SDS011;49514;43.538;-5.708;2023-08-07T08:09:08;8.80;;;1.88;;
60233;SDS011;49514;43.538;-5.708;2023-08-07T08:11:35;5.23;;;1.50;;
60233;SDS011;49514;43.538;-5.708;2023-08-07T08:14:02;7.63;;;1.70;;
60233;SDS011;49514;43.538;-5.708;2023-08-07T08:16:28;5.45;;;1.30;;
60233;SDS011;49514;43.538;-5.708;2023-08-07T08:18:55;6.72;;;1.83;;
60233;SDS011;49514;43.538;-5.708;2023-08-07T08:21:22;10.15;;;1.70;;
60233;SDS011;49514;43.538;-5.708;2023-08-07T08:23:48;5.40;;;1.53;;
60233;SDS011;49514;43.538;-5.708;2023-08-07T08:26:15;6.33;;;1.60;;
60233;SDS011;49514;43.538;-5.708;2023-08-07T08:28:42;5.78;;;1.70;;
60233;SDS011;49514;43.538;-5.708;2023-08-07T08:31:08;6.35;;;1.65;;
60233;SDS011;49514;43.538;-5.708;2023-08-07T08:33:35;5.75;;;1.58;;
60233;SDS011;49514;43.538;-5.708;2023-08-07T08:36:02;6.55;;;1.70;;
60233;SDS011;49514;43.538;-5.708;2023-08-07T08:38:28;6.53;;;1.77;;
60233;SDS011;49514;43.538;-5.708;2023-08-07T08:40:58;6.57;;;1.60;;
60233;SDS011;49514;43.538;-5.708;2023-08-07T08:43:30;6.30;;;1.70;;
60233;SDS011;49514;43.538;-5.708;2023-08-07T08:46:04;7.00;;;1.43;;
60233;SDS011;49514;43.538;-5.708;2023-08-07T08:48:34;11.43;;;1.57;;
60233;SDS011;49514;43.538;-5.708;2023-08-07T08:51:04;7.33;;;1.80;;
60233;SDS011;49514;43.538;-5.708;2023-08-07T08:53:32;8.57;;;1.75;;
60233;SDS011;49514;43.538;-5.708;2023-08-07T08:56:00;8.80;;;1.70;;
60233;SDS011;49514;43.538;-5.708;2023-08-07T08:58:28;4.77;;;1.53;;
60233;SDS011;49514;43.538;-5.708;2023-08-07T09:00:54;6.07;;;1.70;;
60233;SDS011;49514;43.538;-5.708;2023-08-07T09:03:21;10.27;;;1.70;;
60233;SDS011;49514;43.538;-5.708;2023-08-07T09:05:49;7.33;;;1.77;;
60233;SDS011;49514;43.538;-5.708;2023-08-07T09:08:26;8.23;;;1.95;;
60233;SDS011;49514;43.538;-5.708;2023-08-07T09:10:55;5.82;;;1.60;;
60233;SDS011;49514;43.538;-5.708;2023-08-07T09:13:23;8.00;;;1.85;;
60233;SDS011;49514;43.538;-5.708;2023-08-07T09:15:50;7.37;;;1.90;;
60233;SDS011;49514;43.538;-5.708;2023-08-07T09:18:18;7.15;;;1.50;;
60233;SDS011;49514;43.538;-5.708;2023-08-07T09:20:48;5.20;;;1.63;;
60233;SDS011;49514;43.538;-5.708;2023-08-07T09:23:16;8.87;;;1.90;;
60233;SDS011;49514;43.538;-5.708;2023-08-07T09:25:42;8.10;;;1.92;;
60233;SDS011;49514;43.538;-5.708;2023-08-07T09:28:10;5.35;;;1.48;;
60233;SDS011;49514;43.538;-5.708;2023-08-07T09:30:38;6.77;;;1.70;;
60233;SDS011;49514;43.538;-5.708;2023-08-07T09:33:05;8.65;;;1.92;;
60233;SDS011;49514;43.538;-5.708;2023-08-07T09:35:32;6.60;;;1.77;;
60233;SDS011;49514;43.538;-5.708;2023-08-07T09:37:59;7.07;;;1.63;;
60233;SDS011;49514;43.538;-5.708;2023-08-07T09:40:26;8.02;;;1.70;;
60233;SDS011;49514;43.538;-5.708;2023-08-07T09:42:53;7.03;;;1.40;;
60233;SDS011;49514;43.538;-5.708;2023-08-07T09:45:24;6.50;;;1.67;;
60233;SDS011;49514;43.538;-5.708;2023-08-07T09:48:02;6.72;;;1.77;;
60233;SDS011;49514;43.538;-5.708;2023-08-07T09:50:32;9.05;;;1.80;;
60233;SDS011;49514;43.538;-5.708;2023-08-07T09:52:59;8.05;;;1.77;;
60233;SDS011;49514;43.538;-5.708;2023-08-07T09:55:26;7.85;;;1.77;;
60233;SDS011;49514;43.538;-5.708;2023-08-07T09:57:53;7.10;;;1.77;;
60233;SDS011;49514;43.538;-5.708;2023-08-07T10:00:20;9.70;;;1.88;;
60233;SDS011;49514;43.538;-5.708;2023-08-07T10:02:47;5.43;;;1.40;;
60233;SDS011;49514;43.538;-5.708;2023-08-07T10:05:15;8.05;;;1.60;;
60233;SDS011;49514;43.538;-5.708;2023-08-07T10:07:42;6.10;;;1.47;;
60233;SDS011;49514;43.538;-5.708;2023-08-07T10:10:09;8.13;;;1.80;;
60233;SDS011;49514;43.538;-5.708;2023-08-07T10:12:37;7.43;;;1.47;;
60233;SDS011;49514;43.538;-5.708;2023-08-07T10:15:04;7.72;;;1.48;;
60233;SDS011;49514;43.538;-5.708;2023-08-07T10:17:32;7.60;;;1.60;;
60233;SDS011;49514;43.538;-5.708;2023-08-07T10:20:00;8.52;;;1.88;;
60233;SDS011;49514;43.538;-5.708;2023-08-07T10:22:29;7.25;;;1.63;;
60233;SDS011;49514;43.538;-5.708;2023-08-07T10:25:01;8.68;;;1.65;;
60233;SDS011;49514;43.538;-5.708;2023-08-07T10:27:47;8.43;;;1.67;;
60233;SDS011;49514;43.538;-5.708;2023-08-07T10:30:19;7.73;;;1.80;;
60233;SDS011;49514;43.538;-5.708;2023-08-07T10:32:48;7.65;;;1.45;;
60233;SDS011;49514;43.538;-5.708;2023-08-07T10:35:29;6.22;;;1.58;;
60233;SDS011;49514;43.538;-5.708;2023-08-07T10:38:07;6.43;;;1.60;;
60233;SDS011;49514;43.538;-5.708;2023-08-07T10:43:29;9.35;;;1.75;;
60233;SDS011;49514;43.538;-5.708;2023-08-07T10:46:03;13.10;;;2.10;;
60233;SDS011;49514;43.538;-5.708;2023-08-07T10:48:37;9.40;;;1.90;;
60233;SDS011;49514;43.538;-5.708;2023-08-07T10:51:04;8.85;;;1.80;;
60233;SDS011;49514;43.538;-5.708;2023-08-07T10:53:32;9.50;;;1.60;;
60233;SDS011;49514;43.538;-5.708;2023-08-07T10:56:01;13.77;;;1.95;;
60233;SDS011;49514;43.538;-5.708;2023-08-07T10:58:30;9.88;;;1.65;;
60233;SDS011;49514;43.538;-5.708;2023-08-07T11:03:54;7.28;;;1.67;;
60233;SDS011;49514;43.538;-5.708;2023-08-07T11:06:26;9.33;;;1.67;;
60233;SDS011;49514;43.538;-5.708;2023-08-07T11:08:57;12.10;;;2.22;;
60233;SDS011;49514;43.538;-5.708;2023-08-07T11:11:26;8.48;;;1.73;;
60233;SDS011;49514;43.538;-5.708;2023-08-07T11:13:53;8.48;;;2.03;;
60233;SDS011;49514;43.538;-5.708;2023-08-07T11:16:20;7.10;;;1.65;;
60233;SDS011;49514;43.538;-5.708;2023-08-07T11:18:48;8.80;;;1.60;;
60233;SDS011;49514;43.538;-5.708;2023-08-07T11:21:15;16.35;;;2.20;;
60233;SDS011;49514;43.538;-5.708;2023-08-07T11:23:41;12.95;;;2.05;;
60233;SDS011;49514;43.538;-5.708;2023-08-07T11:26:10;15.97;;;2.27;;
60233;SDS011;49514;43.538;-5.708;2023-08-07T11:28:37;9.32;;;1.60;;
60233;SDS011;49514;43.538;-5.708;2023-08-07T11:31:03;10.38;;;2.00;;
60233;SDS011;49514;43.538;-5.708;2023-08-07T11:33:30;11.48;;;1.92;;
60233;SDS011;49514;43.538;-5.708;2023-08-07T11:35:57;15.40;;;2.00;;
60233;SDS011;49514;43.538;-5.708;2023-08-07T11:38:34;19.70;;;2.15;;
60233;SDS011;49514;43.538;-5.708;2023-08-07T11:41:05;14.57;;;1.95;;
60233;SDS011;49514;43.538;-5.708;2023-08-07T11:43:33;13.55;;;2.00;;
60233;SDS011;49514;43.538;-5.708;2023-08-07T11:46:01;14.27;;;2.10;;
60233;SDS011;49514;43.538;-5.708;2023-08-07T11:48:32;12.93;;;1.90;;
60233;SDS011;49514;43.538;-5.708;2023-08-07T11:51:00;13.70;;;1.95;;
60233;SDS011;49514;43.538;-5.708;2023-08-07T11:53:30;11.23;;;1.90;;
60233;SDS011;49514;43.538;-5.708;2023-08-07T11:56:00;11.73;;;1.55;;
60233;SDS011;49514;43.538;-5.708;2023-08-07T11:58:33;14.97;;;2.10;;
60233;SDS011;49514;43.538;-5.708;2023-08-07T12:01:15;18.20;;;2.25;;
60233;SDS011;49514;43.538;-5.708;2023-08-07T12:03:50;13.75;;;2.15;;
60233;SDS011;49514;43.538;-5.708;2023-08-07T12:06:34;9.00;;;1.80;;
60233;SDS011;49514;43.538;-5.708;2023-08-07T12:09:02;8.07;;;1.58;;
60233;SDS011;49514;43.538;-5.708;2023-08-07T12:11:29;13.27;;;1.98;;
60233;SDS011;49514;43.538;-5.708;2023-08-07T12:13:59;17.10;;;2.00;;
60233;SDS011;49514;43.538;-5.708;2023-08-07T12:16:31;12.43;;;1.70;;
60233;SDS011;49514;43.538;-5.708;2023-08-07T12:18:59;11.57;;;1.42;;
60233;SDS011;49514;43.538;-5.708;2023-08-07T12:21:26;22.15;;;2.00;;
60233;SDS011;49514;43.538;-5.708;2023-08-07T12:23:56;17.90;;;2.38;;
60233;SDS011;49514;43.538;-5.708;2023-08-07T12:26:25;12.90;;;1.85;;
60233;SDS011;49514;43.538;-5.708;2023-08-07T12:28:52;18.98;;;1.80;;
60233;SDS011;49514;43.538;-5.708;2023-08-07T12:31:19;16.92;;;2.10;;
60233;SDS011;49514;43.538;-5.708;2023-08-07T12:33:46;12.25;;;1.45;;
60233;SDS011;49514;43.538;-5.708;2023-08-07T12:36:13;31.23;;;2.15;;
60233;SDS011;49514;43.538;-5.708;2023-08-07T12:38:40;20.80;;;2.25;;
60233;SDS011;49514;43.538;-5.708;2023-08-07T12:41:07;17.67;;;1.50;;
60233;SDS011;49514;43.538;-5.708;2023-08-07T12:43:34;13.90;;;1.73;;
60233;SDS011;49514;43.538;-5.708;2023-08-07T12:46:01;9.25;;;1.60;;
60233;SDS011;49514;43.538;-5.708;2023-08-07T12:48:27;8.45;;;1.33;;
60233;SDS011;49514;43.538;-5.708;2023-08-07T12:50:54;15.38;;;1.52;;
60233;SDS011;49514;43.538;-5.708;2023-08-07T12:53:21;10.13;;;1.30;;
60233;SDS011;49514;43.538;-5.708;2023-08-07T12:55:48;13.13;;;1.65;;
60233;SDS011;49514;43.538;-5.708;2023-08-07T12:58:14;18.60;;;1.90;;
60233;SDS011;49514;43.538;-5.708;2023-08-07T13:00:41;13.52;;;1.73;;
60233;SDS011;49514;43.538;-5.708;2023-08-07T13:03:08;9.18;;;1.27;;
60233;SDS011;49514;43.538;-5.708;2023-08-07T13:05:34;6.70;;;1.20;;
60233;SDS011;49514;43.538;-5.708;2023-08-07T13:08:02;14.40;;;1.85;;
60233;SDS011;49514;43.538;-5.708;2023-08-07T13:10:28;18.75;;;1.90;;
60233;SDS011;49514;43.538;-5.708;2023-08-07T13:12:57;14.63;;;1.63;;
60233;SDS011;49514;43.538;-5.708;2023-08-07T13:15:24;13.85;;;1.60;;
60233;SDS011;49514;43.538;-5.708;2023-08-07T13:17:52;13.35;;;1.75;;
60233;SDS011;49514;43.538;-5.708;2023-08-07T13:20:18;16.70;;;1.50;;
60233;SDS011;49514;43.538;-5.708;2023-08-07T13:22:47;14.13;;;1.75;;
60233;SDS011;49514;43.538;-5.708;2023-08-07T13:25:13;5.45;;;1.10;;
60233;SDS011;49514;43.538;-5.708;2023-08-07T13:27:41;11.40;;;1.45;;
60233;SDS011;49514;43.538;-5.708;2023-08-07T13:30:08;8.90;;;1.48;;
60233;SDS011;49514;43.538;-5.708;2023-08-07T13:32:35;14.98;;;1.88;;
60233;SDS011;49514;43.538;-5.708;2023-08-07T13:35:03;16.90;;;1.75;;
60233;SDS011;49514;43.538;-5.708;2023-08-07T13:37:31;18.20;;;1.88;;
60233;SDS011;49514;43.538;-5.708;2023-08-07T13:40:00;13.25;;;1.30;;
60233;SDS011;49514;43.538;-5.708;2023-08-07T13:42:27;13.23;;;1.98;;
60233;SDS011;49514;43.538;-5.708;2023-08-07T13:44:57;13.63;;;1.85;;
60233;SDS011;49514;43.538;-5.708;2023-08-07T13:47:24;8.60;;;1.45;;
60233;SDS011;49514;43.538;-5.708;2023-08-07T13:49:52;6.13;;;1.23;;
60233;SDS011;49514;43.538;-5.708;2023-08-07T13:52:24;11.57;;;1.33;;
60233;SDS011;49514;43.538;-5.708;2023-08-07T13:54:51;12.90;;;1.58;;
60233;SDS011;49514;43.538;-5.708;2023-08-07T13:57:18;6.38;;;1.55;;
60233;SDS011;49514;43.538;-5.708;2023-08-07T13:59:45;20.33;;;1.77;;
60233;SDS011;49514;43.538;-5.708;2023-08-07T14:02:12;12.07;;;1.55;;
60233;SDS011;49514;43.538;-5.708;2023-08-07T14:04:39;9.00;;;1.63;;
60233;SDS011;49514;43.538;-5.708;2023-08-07T14:07:06;14.05;;;1.73;;
60233;SDS011;49514;43.538;-5.708;2023-08-07T14:09:33;10.00;;;1.40;;
60233;SDS011;49514;43.538;-5.708;2023-08-07T14:12:00;6.65;;;1.40;;
60233;SDS011;49514;43.538;-5.708;2023-08-07T14:14:27;8.65;;;1.30;;
60233;SDS011;49514;43.538;-5.708;2023-08-07T14:16:53;17.00;;;1.80;;
60233;SDS011;49514;43.538;-5.708;2023-08-07T14:19:23;11.45;;;1.67;;
60233;SDS011;49514;43.538;-5.708;2023-08-07T14:21:50;17.15;;;1.80;;
60233;SDS011;49514;43.538;-5.708;2023-08-07T14:24:17;8.65;;;1.25;;
60233;SDS011;49514;43.538;-5.708;2023-08-07T14:26:44;8.77;;;1.30;;
60233;SDS011;49514;43.538;-5.708;2023-08-07T14:29:12;7.70;;;1.30;;
60233;SDS011;49514;43.538;-5.708;2023-08-07T14:31:39;8.60;;;1.13;;
60233;SDS011;49514;43.538;-5.708;2023-08-07T14:34:05;11.75;;;1.60;;
60233;SDS011;49514;43.538;-5.708;2023-08-07T14:36:33;13.77;;;1.63;;
60233;SDS011;49514;43.538;-5.708;2023-08-07T14:39:00;8.93;;;1.65;;
60233;SDS011;49514;43.538;-5.708;2023-08-07T14:41:27;7.80;;;1.40;;